Nearby METAR Reports

 

KCGS - College Park, Maryland, USA
Distance from station: S 2mi, 3km
Updated: 07/17/2018 6:37pm
Partly cloudy
Partly cloudy
 Wind from calm
Wind: Calm
Temperature: 81°F , 27°C
Heat Index: 87°F , 31°C
Dew Point: 75°F , 24°C
Humidity: 84%
Barometer: 29.81 inHg , 1009.5 hPa
Clouds: Partly cloudy
Visibility: 10 miles , 16 km
Cloud details: Partly cloudy 1900 ft
Partly cloudy 2800 ft
Partly cloudy 12000 ft
2018/07/17 22:37 KCGS 172237Z AUTO 00000KT 10SM SCT019 SCT028 SCT120 27/24 A2981 RMK AO1 T02740244
KFME - Fort Meade, Maryland, USA
Distance from station: ENE 10mi, 15km
Updated: 07/17/2018 6:36pm
Partly cloudy
Partly cloudy
 Wind from calm
Wind: Calm
Barometer: 29.84 inHg , 1010.5 hPa
Clouds: Partly cloudy
Visibility: 10 miles , 16 km
Cloud details: Partly cloudy 1200 ft
Partly cloudy 2600 ft
Partly cloudy 3100 ft
2018/07/17 22:36 KFME 172236Z AUTO 00000KT 10SM SCT012 SCT026 SCT031 A2984 RMK AO1
KDCA - Washington/Natl, Washington D.c., USA
Distance from station: SSW 13mi, 20km
Updated: 07/17/2018 6:52pm
Mostly cloudy
Mostly cloudy
 Wind from NNW
Wind: NNW 7 mph , 11 km/h
Temperature: 82°F , 28°C
Heat Index: 87°F , 31°C
Dew Point: 73°F , 23°C
Humidity: 74%
Barometer: 29.81 inHg , 1009.5 hPa
Clouds: Mostly cloudy
Visibility: 10 miles , 16 km
Cloud details: Few Clouds 4000 ft
Mostly cloudy 12000 ft
Mostly cloudy 25000 ft
2018/07/17 22:52 KDCA 172252Z 34006KT 10SM FEW040 BKN120 BKN250 28/23 A2981 RMK AO2 LTG DSNT S SLP095 T02830233
 
KADW - Andrews Afb, Maryland, USA
Distance from station: SSE 14mi, 22km
Updated: 07/17/2018 5:56pm
Partly cloudy
Partly cloudy
 Wind from calm
Wind: Calm
Temperature: 79°F , 26°C
Dew Point: 73°F , 23°C
Humidity: 84%
Barometer: 29.81 inHg , 1009.5 hPa
Clouds: Partly cloudy
Visibility: 10 miles , 16 km
Cloud details: Few Clouds 14000 ft
Partly cloudy 19000 ft
2018/07/17 21:56 KADW 172156Z AUTO 00000KT 10SM FEW140 SCT190 26/23 A2981 RMK AO2 SLP099 T02640230 $
KBWI - Balto/Wash Intl, Maryland, USA
Distance from station: NE 17mi, 27km
Updated: 07/17/2018 6:54pm
Mostly cloudy
Mostly cloudy
 Wind from calm
Wind: Calm
Temperature: 81°F , 27°C
Heat Index: 87°F , 31°C
Dew Point: 75°F , 24°C
Humidity: 84%
Barometer: 29.81 inHg , 1009.5 hPa
Clouds: Mostly cloudy
Visibility: 9 miles , 14 km
Cloud details: Partly cloudy 1000 ft
Mostly cloudy 16000 ft
2018/07/17 22:54 KBWI 172254Z 00000KT 9SM SCT010 BKN160 27/24 A2981 RMK AO2 SLP093 T02670239
KGAI - Gaithersburg, Maryland, USA
Distance from station: NW 17mi, 28km
Updated: 07/17/2018 5:56pm
Clear
Clear
 Wind from calm
Wind: Calm
Temperature: 84°F , 29°C
Heat Index: 89°F , 32°C
Dew Point: 72°F , 22°C
Humidity: 66%
Barometer: 29.83 inHg , 1010.2 hPa
Clouds: Clear
Visibility: 10 miles , 16 km
2018/07/17 21:56 KGAI 172156Z AUTO 00000KT 10SM CLR 29/22 A2983 RMK AO2 SLP120 T02890217
 
KNAK - Annapolis/Naval, Maryland, USA
Distance from station: E 23mi, 38km
Updated: 07/17/2018 6:54pm
Partly cloudy
Partly cloudy
 Wind from SE
Wind: SE 5 mph , 7 km/h
Temperature: 81°F , 27°C
Heat Index: 87°F , 31°C
Dew Point: 75°F , 24°C
Humidity: 84%
Barometer: 29.81 inHg , 1009.5 hPa
Clouds: Partly cloudy
Visibility: 10 miles , 16 km
Cloud details: Partly cloudy 1100 ft
2018/07/17 22:54 KNAK 172254Z AUTO 14004KT 10SM SCT011 27/24 A2981 RMK AO2 SLP095 T02720239
KDAA - Fort Belvoir/Dav, Virginia, USA
Distance from station: SSW 24mi, 39km
Updated: 07/17/2018 5:56pm
Few Clouds
Few Clouds
 Wind from calm
Wind: Calm
Temperature: 82°F , 28°C
Heat Index: 89°F , 32°C
Dew Point: 75°F , 24°C
Humidity: 79%
Barometer: 29.81 inHg , 1009.5 hPa
Clouds: Few Clouds
Visibility: 10 miles , 16 km
Cloud details: Few Clouds 13000 ft
2018/07/17 21:56 KDAA 172156Z AUTO 00000KT 10SM FEW130 28/24 A2981 RMK AO2 SLP097 T02810241
KDMH - Baltimore/Dwntwn, Maryland, USA
Distance from station: NE 25mi, 40km
Updated: 07/17/2018 6:54pm

 
Temperature: 82°F , 28°C
Heat Index: 87°F , 31°C
Dew Point: 73°F , 23°C
Humidity: 74%
Barometer: 29.82 inHg , 1009.8 hPa
2018/07/17 22:54 KDMH 172254Z AUTO 28/23 A2982 RMK AO1 SLP097 T02780233
 
KIAD - Wash Dc/Dulles, Virginia, USA
Distance from station: W 29mi, 47km
Updated: 07/17/2018 6:52pm
Mostly cloudy
Mostly cloudy
 Wind from N
Wind: N 5 mph , 7 km/h
Temperature: 82°F , 28°C
Heat Index: 86°F , 30°C
Dew Point: 72°F , 22°C
Humidity: 70%
Barometer: 29.82 inHg , 1009.8 hPa
Clouds: Mostly cloudy
Visibility: 10 miles , 16 km
Cloud details: Partly cloudy 9000 ft
Mostly cloudy 15000 ft
2018/07/17 22:52 KIAD 172252Z 36004KT 10SM SCT090 BKN150 28/22 A2982 RMK AO2 SLP096 TCU DSNT E T02830217
KW29 - Stevensville, Maryland, USA
Distance from station: E 31mi, 51km
Updated: 07/17/2018 6:35pm
Overcast
Overcast
 Wind from calm
Wind: Calm
Temperature: 77°F , 25°C
Dew Point: 75°F , 24°C
Humidity: 94%
Barometer: 29.82 inHg , 1009.8 hPa
Clouds: Overcast
Visibility: 7 miles , 11 km
Cloud details: Mostly cloudy 7500 ft
Overcast 9000 ft
2018/07/17 22:35 KW29 172235Z AUTO 00000KT 7SM BKN075 OVC090 25/24 A2982 RMK AO2 LTG DSNT E AND S
KMTN - Baltimore/Martin, Maryland, USA
Distance from station: NE 34mi, 55km
Updated: 07/17/2018 6:50pm
Mostly cloudy
Mostly cloudy
 Wind from E
Wind: E 6 mph , 9 km/h
Temperature: 81°F , 27°C
Heat Index: 89°F , 32°C
Dew Point: 79°F , 26°C
Humidity: 94%
Barometer: 29.83 inHg , 1010.2 hPa
Clouds: Mostly cloudy
Visibility: 10 miles , 16 km
Cloud details: Mostly cloudy 1000 ft
Mostly cloudy 6000 ft
2018/07/17 22:50 KMTN 172250Z 09005KT 10SM BKN010 BKN060 27/26 A2983
 
KJYO - Leesburg/Godfrey, Virginia, USA
Distance from station: W 35mi, 56km
Updated: 07/17/2018 6:35pm
Partly cloudy
Partly cloudy
 Wind from N
Wind: N 3 mph , 6 km/h
Temperature: 82°F , 28°C
Heat Index: 87°F , 31°C
Dew Point: 73°F , 23°C
Humidity: 74%
Barometer: 29.83 inHg , 1010.2 hPa
Clouds: Partly cloudy
Visibility: 10 miles , 16 km
Cloud details: Partly cloudy 12000 ft
2018/07/17 22:35 KJYO 172235Z AUTO 01003KT 10SM SCT120 28/23 A2983 RMK AO2
KFDK - Frederick, Maryland, USA
Distance from station: NW 37mi, 60km
Updated: 07/17/2018 6:47pm
Few Clouds
Few Clouds
 Wind from NE
Wind: NE 5 mph , 7 km/h
Temperature: 86°F , 30°C
Heat Index: 88°F , 31°C
Dew Point: 66°F , 19°C
Humidity: 52%
Barometer: 29.84 inHg , 1010.5 hPa
Clouds: Few Clouds
Visibility: 10 miles , 16 km
Cloud details: Few Clouds 2500 ft
2018/07/17 22:47 KFDK 172247Z 05004KT 10SM FEW025 30/19 A2984 RMK LTG DSNT E
KHEF - Manassas Muni, Virginia, USA
Distance from station: WSW 38mi, 61km
Updated: 07/17/2018 5:56pm
Partly cloudy
Partly cloudy
 Wind from N
Wind: N 7 mph , 11 km/h
Temperature: 84°F , 29°C
Heat Index: 90°F , 32°C
Dew Point: 73°F , 23°C
Humidity: 70%
Barometer: 29.82 inHg , 1009.8 hPa
Clouds: Partly cloudy
Visibility: 10 miles , 16 km
Cloud details: Partly cloudy 12000 ft
2018/07/17 21:56 KHEF 172156Z 36006KT 10SM SCT120 29/23 A2982 RMK AO2 SLP104 T02890228 PNO $
 
KNYG - Quantico Mcaf, Virginia, USA
Distance from station: SSW 40mi, 65km
Updated: 07/17/2018 5:56pm
Mostly cloudy
Mostly cloudy
 Wind from NW
Wind: NW 5 mph , 7 km/h
Temperature: 82°F , 28°C
Heat Index: 89°F , 32°C
Dew Point: 75°F , 24°C
Humidity: 79%
Barometer: 29.81 inHg , 1009.5 hPa
Clouds: Mostly cloudy
Visibility: 10 miles , 16 km
Cloud details: Few Clouds 10000 ft
Mostly cloudy 12000 ft
2018/07/17 21:56 KNYG 172156Z AUTO 31004KT 10SM FEW100 BKN120 28/24 A2981 RMK AO2 SLP097 T02830244 $
KDMW - Carroll Cnty, Maryland, USA
Distance from station: N 41mi, 66km
Updated: 07/17/2018 6:35pm
Clear
Clear
 Wind from ENE
Wind: ENE 3 mph , 6 km/h
Temperature: 84°F , 29°C
Heat Index: 89°F , 32°C
Dew Point: 72°F , 22°C
Humidity: 66%
Barometer: 29.84 inHg , 1010.5 hPa
Clouds: Clear
Visibility: 10 miles , 16 km
2018/07/17 22:35 KDMW 172235Z AUTO 07003KT 10SM CLR 29/22 A2984 RMK AO2 LTG DSNT SE
KESN - Easton/Newnam, Maryland, USA
Distance from station: ESE 48mi, 77km
Updated: 07/17/2018 6:50pm
Mostly cloudy
Mostly cloudy
 Wind from calm
Wind: Calm
Temperature: 75°F , 24°C
Dew Point: 73°F , 23°C
Humidity: 94%
Barometer: 29.84 inHg , 1010.5 hPa
Clouds: Mostly cloudy
Visibility: 10 miles , 16 km
Cloud details: Mostly cloudy 9000 ft
2018/07/17 22:50 KESN 172250Z 00000KT 10SM BKN090 24/23 A2984